KFMY/FMY METAR and TAF weather

Enter ICAO airport designator
Station Type Date Time Source
KFMY METAR 2019/09/20 19:53 UTC NOAA

KFMY 201953Z 08013G25KT 10SM FEW029 SCT055 SCT085 30/21 A3000 RMK AO2 PK WND 09026/1934 RAB23E34 SLP160 P0000 T03000206


Station Type Date Time Source
KFMY Decoded METAR 2019/09/20 19:53 UTC NOAA

FORT MYERS PAGE FIELD, FL, United States (KFMY) 26-35N 081-52W 4M
Sep 20, 2019 - 03:53 PM EDT / 2019.09.20 1953 UTC
Wind: from the E (080 degrees) at 15 MPH (13 KT) gusting to 29 MPH (25 KT):0
Visibility: 10 mile(s):0
Sky conditions: partly cloudy
Precipitation last hour: A trace
Temperature: 86.0 F (30.0 C)
Dew Point: 69.1 F (20.6 C)
Relative Humidity: 57%
Pressure (altimeter): 30 in. Hg (1015 hPa)
ob: KFMY 201953Z 08013G25KT 10SM FEW029 SCT055 SCT085 30/21 A3000 RMK AO2 PK WND 09026/1934 RAB23E34 SLP160 P0000 T03000206
cycle: 20

Station Type Date Time Source
KFMY TAF 2019/09/20 18:33 UTC NOAA

TAF KFMY 201729Z 2018/2118 08014G24KT P6SM SCT040 BKN080
FM210300 06008KT P6SM SKC
FM211500 07010G20KT P6SM SCT050 SCT250

Example: see airport list